Time;durP1;ratioP1;P1;durP2;ratioP2;P2;SDS_P1;SDS_P2;PMS_P1;PMS_P2;Temp;Humidity;BMP_temperature;BMP_pressure;BME280_temperature;BME280_humidity;BME280_pressure;Samples;Min_cycle;Max_cycle;Signal;HPM_P1;HPM_P2
2021/12/06 00:00:47;;;;;;;;;4.25;3.00;;;;;8.39;63.97;100665.06;5075777;28;45819;-74
2021/12/06 00:03:30;;;;;;;;;3.25;3.25;;;;;8.48;64.11;100690.41;5079123;27;45613;-74
2021/12/06 00:05:56;;;;;;;;;6.00;3.00;;;;;7.88;64.06;100590.63;5081790;27;45558;-74
2021/12/06 00:08:22;;;;;;;;;4.25;2.00;;;;;8.14;64.51;100637.84;5064654;28;46489;-76
2021/12/06 00:10:50;;;;;;;;;3.50;3.50;;;;;7.84;64.62;100588.84;5080687;27;45529;-76
2021/12/06 00:13:22;;;;;;;;;2.50;2.00;;;;;8.47;64.39;100701.69;5077491;28;45576;-77
2021/12/06 00:15:50;;;;;;;;;4.75;4.75;;;;;8.46;64.56;100693.00;5077594;28;45307;-78
2021/12/06 00:18:21;;;;;;;;;4.00;4.00;;;;;8.19;64.40;100649.22;5069802;28;45563;-77
2021/12/06 00:20:47;;;;;;;;;4.00;3.75;;;;;8.04;64.78;100642.09;5068176;28;45897;-78
2021/12/06 00:23:40;;;;;;;;;3.75;3.50;;;;;8.43;64.67;100706.03;5081839;27;45520;-77
2021/12/06 00:26:10;;;;;;;;;3.75;3.75;;;;;8.13;64.24;100653.47;5077448;28;45299;-76
2021/12/06 00:28:40;;;;;;;;;5.25;5.00;;;;;8.33;64.31;100680.66;5054494;28;45590;-77
2021/12/06 00:31:06;;;;;;;;;3.00;2.75;;;;;8.36;64.86;100682.44;5067487;28;45456;-76
2021/12/06 00:33:33;;;;;;;;;6.00;4.75;;;;;8.49;64.42;100703.50;5057776;28;45547;-77
2021/12/06 00:36:04;;;;;;;;;5.00;4.00;;;;;8.32;64.26;100678.91;5076624;27;45619;-76
2021/12/06 00:38:34;;;;;;;;;6.50;4.00;;;;;8.38;64.49;100691.16;5078608;27;46286;-76
2021/12/06 00:41:03;;;;;;;;;11.00;5.00;;;;;8.51;64.56;100706.09;5070432;28;45425;-78
2021/12/06 00:43:30;;;;;;;;;5.00;3.00;;;;;7.88;64.28;100611.50;5052551;27;46613;-77
2021/12/06 00:45:55;;;;;;;;;6.00;5.00;;;;;7.82;65.03;100614.03;5077442;27;45897;-75
2021/12/06 00:48:25;;;;;;;;;4.00;4.00;;;;;7.98;64.56;100631.59;5076930;28;46183;-78
2021/12/06 00:50:51;;;;;;;;;7.00;4.75;;;;;8.40;64.42;100699.88;5045907;28;45462;-77
2021/12/06 00:53:17;;;;;;;;;6.00;4.00;;;;;7.98;64.30;100642.03;5078501;27;45572;-78
2021/12/06 00:56:00;;;;;;;;;5.00;4.00;;;;;8.54;64.39;100739.19;5082940;27;45385;-80
2021/12/06 00:58:27;;;;;;;;;3.25;3.25;;;;;7.87;64.37;100635.81;5072799;27;45905;-74
2021/12/06 01:00:54;;;;;;;;;6.50;3.75;;;;;8.45;64.83;100732.16;5070361;27;46858;-75
2021/12/06 01:03:24;;;;;;;;;6.00;5.00;;;;;8.55;64.58;100746.16;5057512;28;45498;-76
2021/12/06 01:05:50;;;;;;;;;8.75;5.00;;;;;8.40;64.75;100723.38;5077719;28;45460;-75
2021/12/06 01:08:18;;;;;;;;;7.00;4.00;;;;;8.56;64.17;100751.38;5076887;27;45491;-76
2021/12/06 01:10:46;;;;;;;;;4.75;4.75;;;;;8.57;64.59;100747.06;5075192;27;45437;-77
2021/12/06 01:13:16;;;;;;;;;4.00;4.00;;;;;8.44;64.52;100728.63;5066800;28;45563;-75
2021/12/06 01:15:44;;;;;;;;;6.25;4.00;;;;;8.58;64.94;100754.03;5074592;28;45347;-75
2021/12/06 01:18:16;;;;;;;;;3.75;2.00;;;;;8.58;64.87;100756.63;5072133;27;45395;-72
2021/12/06 01:20:53;;;;;;;;;4.00;3.00;;;;;8.58;64.83;100756.63;5059105;28;45523;-75
2021/12/06 01:23:23;;;;;;;;;4.75;3.75;;;;;8.58;64.70;100761.84;5077237;27;45362;-76
2021/12/06 01:41:33;;;;;;;;;3.00;3.00;;;;;8.37;65.43;100749.41;5060026;28;45510;-76
2021/12/06 01:44:10;;;;;;;;;4.00;4.00;;;;;8.58;65.91;100786.22;5057690;28;45483;-74
2021/12/06 01:46:41;;;;;;;;;4.00;4.00;;;;;7.98;64.83;100698.53;5057930;28;45603;-76
2021/12/06 01:49:07;;;;;;;;;4.25;4.25;;;;;8.39;65.41;100759.00;5057615;28;45432;-75
2021/12/06 01:51:34;;;;;;;;;4.25;3.75;;;;;8.55;65.33;100791.41;5058868;28;45406;-74
2021/12/06 01:54:00;;;;;;;;;3.00;3.00;;;;;8.60;65.33;100801.91;5059187;28;45398;-75
2021/12/06 01:56:26;;;;;;;;;4.75;4.75;;;;;8.31;65.23;100762.41;5059752;28;45633;-76
2021/12/06 01:58:53;;;;;;;;;5.50;5.00;;;;;8.17;65.41;100725.72;5061077;28;46155;-76
2021/12/06 02:01:20;;;;;;;;;5.25;3.00;;;;;8.59;65.34;100814.09;5064707;28;45326;-75
2021/12/06 02:03:46;;;;;;;;;4.00;2.75;;;;;8.58;65.39;100812.34;5068090;28;45307;-76
2021/12/06 02:06:12;;;;;;;;;4.25;3.00;;;;;8.24;65.43;100753.63;5063248;28;45417;-76
2021/12/06 02:08:37;;;;;;;;;3.00;3.00;;;;;8.32;65.72;100775.44;5060883;28;45398;-75
2021/12/06 02:11:05;;;;;;;;;4.50;4.00;;;;;8.59;65.78;100823.66;5065194;28;45624;-76
2021/12/06 02:13:39;;;;;;;;;4.25;1.00;;;;;8.59;65.54;100826.25;5071302;28;45397;-74
2021/12/06 02:16:05;;;;;;;;;6.00;3.00;;;;;8.21;66.20;100764.00;5061136;28;45479;-75
2021/12/06 02:21:25;;;;;;;;;3.00;3.00;;;;;8.62;66.17;100841.97;5060272;28;45434;-75
2021/12/06 02:23:51;;;;;;;;;6.00;2.75;;;;;8.47;66.04;100809.63;5056391;28;45419;-75
2021/12/06 02:26:17;;;;;;;;;3.00;3.00;;;;;8.02;66.21;100744.63;5058147;28;45383;-72
2021/12/06 02:28:43;;;;;;;;;3.75;3.25;;;;;8.08;66.40;100758.66;5039754;28;46613;-77
2021/12/06 02:31:10;;;;;;;;;7.50;3.75;;;;;8.12;66.32;100758.69;5057142;28;45483;-76
2021/12/06 02:33:36;;;;;;;;;3.75;3.75;;;;;8.54;66.41;100841.00;5060058;28;45415;-77
2021/12/06 02:36:03;;;;;;;;;5.25;4.00;;;;;8.39;66.29;100811.22;5060240;28;45453;-76
2021/12/06 02:38:29;;;;;;;;;4.25;4.00;;;;;8.62;66.37;100849.81;5066796;27;45562;-76
2021/12/06 02:40:54;;;;;;;;;7.00;3.25;;;;;8.14;66.19;100765.69;5080747;28;45496;-75
2021/12/06 02:43:20;;;;;;;;;3.00;3.00;;;;;8.34;66.02;100789.41;5078361;28;45761;-74
2021/12/06 02:45:46;;;;;;;;;6.00;4.00;;;;;8.61;66.49;100856.78;5076390;28;45880;-74
2021/12/06 02:48:14;;;;;;;;;3.25;2.75;;;;;8.61;66.34;100848.94;5075473;27;46108;-75
2021/12/06 02:50:53;;;;;;;;;7.00;4.00;;;;;8.51;66.33;100828.78;5076444;28;45284;-74
2021/12/06 02:53:33;;;;;;;;;4.75;4.00;;;;;8.41;66.15;100819.97;5061134;28;45493;-77
2021/12/06 02:56:05;;;;;;;;;4.00;3.50;;;;;8.06;66.31;100751.66;5060570;28;45320;-77
2021/12/06 03:01:13;;;;;;;;;7.50;4.50;;;;;8.53;66.21;100824.47;5055160;28;45816;-75
2021/12/06 03:03:39;;;;;;;;;6.00;4.00;;;;;8.50;66.19;100824.44;5056354;28;45449;-73
2021/12/06 03:06:06;;;;;;;;;3.00;3.00;;;;;8.31;66.13;100796.34;5056709;28;45488;-75
2021/12/06 03:08:39;;;;;;;;;7.00;5.25;;;;;8.56;66.36;100849.72;5057530;28;46355;-76
2021/12/06 03:11:08;;;;;;;;;5.50;3.75;;;;;8.63;65.97;100859.38;5063087;28;45480;-76
2021/12/06 03:13:34;;;;;;;;;5.00;5.00;;;;;8.46;66.15;100830.47;5076597;28;45513;-75
2021/12/06 03:16:02;;;;;;;;;4.75;4.00;;;;;8.66;66.45;100869.84;5080966;28;45326;-76
2021/12/06 03:18:27;;;;;;;;;5.25;5.25;;;;;8.24;65.81;100801.47;5081945;28;48053;-77
2021/12/06 03:20:59;;;;;;;;;4.50;4.50;;;;;8.42;66.40;100836.50;5083539;28;45403;-75
2021/12/06 03:23:25;;;;;;;;;4.25;4.25;;;;;8.67;66.08;100875.09;5082622;27;45420;-74
2021/12/06 03:25:51;;;;;;;;;7.75;4.50;;;;;8.57;66.31;100862.81;5084965;27;45398;-74
2021/12/06 03:28:17;;;;;;;;;6.50;5.00;;;;;8.55;66.03;100854.06;5085084;27;46424;-73
2021/12/06 03:30:43;;;;;;;;;6.00;3.75;;;;;8.69;66.39;100881.22;5086458;27;45206;-74
2021/12/06 03:33:08;;;;;;;;;5.00;5.00;;;;;8.67;66.31;100876.84;5086921;28;45371;-75
2021/12/06 03:35:37;;;;;;;;;5.50;4.75;;;;;8.72;66.42;100882.13;5068680;28;45388;-76
2021/12/06 03:38:03;;;;;;;;;6.00;4.25;;;;;8.71;66.73;100883.88;5084220;27;45491;-76
2021/12/06 03:40:29;;;;;;;;;5.25;5.00;;;;;8.57;66.62;100860.19;5081992;27;45769;-74
2021/12/06 03:42:58;;;;;;;;;4.75;4.00;;;;;8.15;66.71;100797.88;5082951;28;45487;-75
2021/12/06 03:45:23;;;;;;;;;7.00;6.25;;;;;8.62;67.22;100883.75;5079547;28;45374;-76
2021/12/06 03:47:49;;;;;;;;;8.25;4.00;;;;;8.39;66.71;100841.66;5079249;28;45983;-75
2021/12/06 03:50:16;;;;;;;;;6.50;4.00;;;;;8.63;67.07;100882.88;5079337;27;45652;-75
2021/12/06 03:52:41;;;;;;;;;5.75;4.50;;;;;8.55;66.61;100874.09;5064581;28;45503;-73
2021/12/06 03:55:09;;;;;;;;;6.50;6.50;;;;;8.64;67.15;100902.94;5059788;28;45308;-77
2021/12/06 03:57:35;;;;;;;;;5.00;4.75;;;;;8.64;66.87;100900.31;5082750;27;45393;-76
2021/12/06 04:00:03;;;;;;;;;7.75;6.75;;;;;8.59;67.06;100892.44;5080861;28;45283;-72
2021/12/06 04:02:31;;;;;;;;;6.00;6.00;;;;;8.15;67.47;100811.78;5061054;27;45280;-74
2021/12/06 04:04:57;;;;;;;;;8.75;5.75;;;;;8.57;67.11;100885.44;5057817;28;45351;-72
2021/12/06 04:07:23;;;;;;;;;5.25;4.00;;;;;8.27;67.24;100847.59;5059675;28;46280;-72
2021/12/06 04:09:50;;;;;;;;;6.50;6.00;;;;;8.54;66.99;100899.28;5068509;27;45373;-75
2021/12/06 04:12:17;;;;;;;;;7.75;5.50;;;;;8.58;67.34;100919.38;5066410;28;45344;-74
2021/12/06 04:14:44;;;;;;;;;8.50;5.75;;;;;8.53;67.34;100907.13;5069344;28;45477;-73
2021/12/06 04:17:12;;;;;;;;;8.00;6.00;;;;;8.53;67.29;100910.59;5057555;28;46369;-76
2021/12/06 04:19:40;;;;;;;;;5.50;5.00;;;;;8.70;67.15;100939.53;5058035;28;45851;-75
2021/12/06 04:22:06;;;;;;;;;4.75;4.25;;;;;8.10;66.99;100839.53;5058739;28;45558;-75
2021/12/06 04:24:32;;;;;;;;;9.25;8.00;;;;;8.70;67.17;100945.63;5058606;28;45644;-75
2021/12/06 04:26:58;;;;;;;;;7.75;6.00;;;;;8.61;67.36;100927.28;5060510;28;46231;-77
2021/12/06 04:29:25;;;;;;;;;7.00;5.25;;;;;8.63;67.59;100935.97;5058459;28;45509;-76
2021/12/06 04:31:55;;;;;;;;;11.00;8.00;;;;;8.60;67.16;100932.47;5041200;28;45513;-76
2021/12/06 04:34:21;;;;;;;;;8.25;6.25;;;;;8.70;67.13;100950.00;5058345;28;46063;-77
2021/12/06 04:36:48;;;;;;;;;6.75;6.75;;;;;8.72;67.00;100950.03;5062710;28;45478;-75
2021/12/06 04:39:20;;;;;;;;;7.50;6.50;;;;;8.71;66.98;100946.53;5063257;28;45406;-76
2021/12/06 04:41:46;;;;;;;;;8.50;8.00;;;;;8.71;67.13;100954.38;5062846;28;45530;-76
2021/12/06 04:44:13;;;;;;;;;7.50;6.50;;;;;8.55;67.09;100921.97;5062976;28;45440;-75
2021/12/06 04:46:38;;;;;;;;;9.75;7.50;;;;;7.96;67.20;100841.94;5044528;28;47956;-76
2021/12/06 04:49:06;;;;;;;;;8.75;7.25;;;;;8.74;67.37;100963.97;5062816;28;45429;-73
2021/12/06 04:51:32;;;;;;;;;9.00;7.00;;;;;8.70;66.88;100966.53;5062181;28;45491;-75
2021/12/06 04:54:02;;;;;;;;;10.50;8.00;;;;;8.70;67.34;100965.66;5057895;28;45816;-75
2021/12/06 04:56:33;;;;;;;;;7.50;7.00;;;;;8.76;67.29;100981.44;5065063;28;45461;-76
2021/12/06 04:59:15;;;;;;;;;9.50;6.50;;;;;8.76;66.76;100977.94;5059005;28;45865;-74
2021/12/06 05:01:42;;;;;;;;;11.00;7.00;;;;;8.76;67.47;100984.03;5059787;28;45627;-76
2021/12/06 05:04:15;;;;;;;;;7.50;7.25;;;;;8.48;67.73;100936.66;5063854;28;45486;-76
2021/12/06 05:06:43;;;;;;;;;6.00;4.25;;;;;8.63;67.72;100971.66;5063690;28;45460;-75
2021/12/06 05:09:17;;;;;;;;;8.00;7.00;;;;;8.72;67.76;100984.84;5058902;28;45308;-72
2021/12/06 05:11:44;;;;;;;;;8.00;6.50;;;;;8.73;67.72;100989.19;5065894;28;45422;-77
2021/12/06 05:14:10;;;;;;;;;6.50;5.25;;;;;8.71;68.11;100988.31;5083131;28;45354;-75
2021/12/06 05:16:36;;;;;;;;;8.50;7.25;;;;;7.93;67.96;100867.13;5081517;27;45596;-75
2021/12/06 05:19:04;;;;;;;;;7.75;6.50;;;;;8.57;67.95;100982.03;5082205;27;45414;-74
2021/12/06 05:21:30;;;;;;;;;8.50;6.25;;;;;8.61;68.10;100989.94;5084669;27;45311;-73
2021/12/06 05:23:56;;;;;;;;;7.25;5.75;;;;;8.52;68.19;100986.28;5085991;27;45618;-76
2021/12/06 05:26:21;;;;;;;;;6.75;6.75;;;;;8.54;69.57;101001.13;5085688;28;45483;-76
2021/12/06 05:28:48;;;;;;;;;7.50;6.75;;;;;8.13;69.27;100943.06;5085815;27;45306;-74
2021/12/06 05:31:18;;;;;;;;;9.50;7.00;;;;;8.47;69.54;100999.28;5079527;28;45422;-76
2021/12/06 05:33:51;;;;;;;;;8.25;7.25;;;;;8.45;69.42;101011.44;5078042;28;45566;-78
2021/12/06 05:36:17;;;;;;;;;8.75;7.50;;;;;7.86;69.52;100923.53;5063898;28;46258;-75
2021/12/06 05:38:43;;;;;;;;;10.00;7.00;;;;;8.33;69.67;101030.38;5060781;28;45262;-76
2021/12/06 05:41:09;;;;;;;;;9.50;8.00;;;;;8.17;70.30;101028.38;5057654;28;45572;-74
2021/12/06 05:43:35;;;;;;;;;8.00;6.25;;;;;8.10;70.47;101021.28;5066763;28;45600;-75
2021/12/06 05:46:02;;;;;;;;;7.75;6.00;;;;;8.13;70.59;101026.56;5073078;28;45532;-77
2021/12/06 05:48:29;;;;;;;;;7.00;7.00;;;;;7.92;70.42;100990.53;5071674;28;45645;-75
2021/12/06 05:50:54;;;;;;;;;10.50;9.00;;;;;8.17;70.42;101025.75;5072513;28;45780;-74
2021/12/06 05:53:21;;;;;;;;;12.75;9.50;;;;;7.62;70.62;100948.34;5072559;28;45540;-73
2021/12/06 05:55:48;;;;;;;;;12.50;10.25;;;;;8.08;70.61;101037.78;5071965;28;45517;-73
2021/12/06 05:58:16;;;;;;;;;11.25;10.00;;;;;8.01;70.71;101035.91;5071865;28;45951;-73
2021/12/06 06:00:43;;;;;;;;;8.75;8.75;;;;;7.88;70.02;101005.28;5075531;28;45461;-77
2021/12/06 06:03:09;;;;;;;;;11.50;10.00;;;;;7.67;70.05;100965.78;5074065;28;45624;-74
2021/12/06 06:05:36;;;;;;;;;13.25;9.25;;;;;8.15;70.25;101035.28;5074306;28;46654;-72
2021/12/06 06:08:03;;;;;;;;;10.50;9.00;;;;;8.05;69.66;101011.66;5072732;28;45610;-74
2021/12/06 06:10:31;;;;;;;;;11.50;10.75;;;;;7.99;69.56;101005.44;5064786;28;45544;-76
2021/12/06 06:12:58;;;;;;;;;10.25;9.00;;;;;7.84;69.76;100970.44;5071294;28;45413;-75
2021/12/06 06:15:25;;;;;;;;;7.75;7.50;;;;;8.21;69.26;101024.94;5055437;28;45863;-77
2021/12/06 06:17:50;;;;;;;;;8.75;8.00;;;;;8.29;68.99;101034.66;5052094;28;45818;-75
2021/12/06 06:20:24;;;;;;;;;8.50;5.75;;;;;8.03;68.93;100999.44;5052185;28;45531;-74
2021/12/06 06:22:50;;;;;;;;;9.25;8.25;;;;;8.05;69.03;100984.69;5052412;28;45919;-74
2021/12/06 06:25:17;;;;;;;;;10.00;8.00;;;;;8.33;69.63;101056.47;5051160;28;46223;-76
2021/12/06 06:27:44;;;;;;;;;12.00;9.50;;;;;7.85;69.43;100977.41;5052235;28;45809;-76
2021/12/06 06:30:14;;;;;;;;;10.00;8.75;;;;;8.33;69.49;101061.69;5052800;28;45873;-75
2021/12/06 06:32:40;;;;;;;;;11.50;8.75;;;;;7.87;69.40;100972.22;5053058;28;45907;-73
2021/12/06 06:35:07;;;;;;;;;9.75;8.75;;;;;8.35;69.20;101051.25;5051347;28;45397;-76
2021/12/06 06:37:33;;;;;;;;;10.00;8.25;;;;;8.40;68.80;101060.97;5058276;28;45929;-72
2021/12/06 06:39:59;;;;;;;;;12.25;10.75;;;;;8.36;69.63;101072.16;5061434;28;45706;-74
2021/12/06 06:42:27;;;;;;;;;8.50;6.00;;;;;8.38;69.37;101070.47;5069181;28;45506;-76
2021/12/06 06:44:54;;;;;;;;;7.75;6.50;;;;;8.40;68.76;101065.28;5051996;28;46145;-76
2021/12/06 06:47:21;;;;;;;;;12.00;9.00;;;;;8.41;69.01;101067.94;5051379;28;45536;-75
2021/12/06 06:49:47;;;;;;;;;12.25;8.50;;;;;8.42;68.71;101061.88;5061727;28;45873;-75
2021/12/06 06:52:13;;;;;;;;;8.00;8.00;;;;;7.84;68.54;100978.25;5070968;28;45575;-72
2021/12/06 06:54:39;;;;;;;;;15.25;12.00;;;;;8.31;69.33;101076.44;5071015;28;46399;-76
2021/12/06 06:57:05;;;;;;;;;11.50;10.00;;;;;8.26;69.47;101070.28;5071923;28;45555;-75
2021/12/06 06:59:31;;;;;;;;;8.50;8.00;;;;;8.08;69.13;101048.22;5071936;28;45508;-74
2021/12/06 07:01:57;;;;;;;;;12.25;11.75;;;;;8.17;69.61;101076.19;5072033;28;45996;-72
2021/12/06 07:04:23;;;;;;;;;9.75;9.75;;;;;7.79;69.36;101026.84;5071657;28;45867;-73
2021/12/06 07:06:49;;;;;;;;;12.00;9.75;;;;;8.01;68.98;101050.69;5071985;28;45787;-75
2021/12/06 07:09:15;;;;;;;;;12.25;10.75;;;;;8.28;68.90;101092.94;5053422;28;45905;-72
2021/12/06 07:11:45;;;;;;;;;9.25;9.25;;;;;8.15;68.21;101062.25;5065331;28;45436;-74
2021/12/06 07:14:11;;;;;;;;;9.00;9.00;;;;;8.18;68.45;101071.84;5069861;28;46329;-74
2021/12/06 07:16:37;;;;;;;;;11.25;9.00;;;;;8.39;68.25;101110.50;5071552;28;45425;-73
2021/12/06 07:19:03;;;;;;;;;12.50;9.00;;;;;8.17;68.51;101070.13;5070864;28;45818;-73
2021/12/06 07:21:30;;;;;;;;;16.00;12.25;;;;;8.30;68.68;101119.03;5071135;28;45375;-72
2021/12/06 07:23:55;;;;;;;;;12.00;9.00;;;;;8.16;68.95;101097.94;5071505;28;46493;-75
2021/12/06 07:26:22;;;;;;;;;10.50;9.00;;;;;8.04;68.75;101067.28;5071072;28;45792;-72
2021/12/06 07:28:50;;;;;;;;;10.50;8.25;;;;;8.33;68.67;101112.97;5071434;28;45540;-73
2021/12/06 07:31:17;;;;;;;;;12.75;10.75;;;;;8.35;68.73;101112.19;5071144;28;45481;-74
2021/12/06 07:33:46;;;;;;;;;14.00;11.25;;;;;7.90;68.61;101050.53;5071673;28;46334;-76
2021/12/06 07:36:12;;;;;;;;;11.25;11.25;;;;;8.13;69.22;101117.88;5064839;28;45569;-71
2021/12/06 07:38:39;;;;;;;;;11.00;11.00;;;;;8.16;68.58;101121.44;5060710;28;45520;-72
2021/12/06 07:41:12;;;;;;;;;15.25;11.75;;;;;8.12;68.39;101105.69;5073079;28;45498;-76
2021/12/06 07:43:39;;;;;;;;;16.00;11.75;;;;;8.24;68.42;101119.81;5071726;28;45782;-72
2021/12/06 07:46:07;;;;;;;;;19.00;11.00;;;;;8.14;68.44;101115.28;5071385;28;45805;-75
2021/12/06 07:48:34;;;;;;;;;15.75;15.75;;;;;7.80;68.35;101067.69;5071580;28;45638;-71
2021/12/06 07:51:01;;;;;;;;;13.50;12.00;;;;;7.92;68.39;101095.75;5072488;28;45442;-74
2021/12/06 07:53:32;;;;;;;;;12.00;12.00;;;;;8.00;69.62;101128.09;5073817;28;45703;-74
2021/12/06 07:55:58;;;;;;;;;11.50;9.75;;;;;7.77;69.06;101088.53;5076013;28;45516;-72
2021/12/06 07:58:24;;;;;;;;;12.50;10.50;;;;;7.94;69.25;101134.91;5077014;28;45971;-75
2021/12/06 08:00:51;;;;;;;;;11.25;10.75;;;;;7.70;70.08;101083.16;5058916;28;45711;-72
2021/12/06 08:03:19;;;;;;;;;11.50;10.00;;;;;7.37;69.93;101055.56;5077917;28;46504;-76
2021/12/06 08:05:47;;;;;;;;;13.25;10.50;;;;;7.29;70.18;101044.13;5059382;28;45475;-74
2021/12/06 08:08:18;;;;;;;;;15.25;12.00;;;;;7.94;70.06;101135.78;5078899;28;45853;-75
2021/12/06 08:10:47;;;;;;;;;7.25;7.25;;;;;7.93;69.91;101123.59;5076143;28;45505;-73
2021/12/06 08:13:16;;;;;;;;;11.00;10.00;;;;;7.28;69.68;101016.31;5076308;28;45514;-75
2021/12/06 08:15:43;;;;;;;;;10.00;9.75;;;;;7.63;70.28;101070.00;5057447;28;45807;-75
2021/12/06 08:18:10;;;;;;;;;10.00;9.75;;;;;7.77;69.90;101074.59;5077279;28;45539;-71
2021/12/06 08:20:37;;;;;;;;;13.50;10.50;;;;;7.91;69.39;101083.56;5076621;28;45377;-75
2021/12/06 08:23:05;;;;;;;;;18.50;16.00;;;;;8.16;69.02;101116.22;5075212;28;46951;-75
2021/12/06 08:25:31;;;;;;;;;12.00;12.00;;;;;8.02;68.68;101100.28;5074031;28;45493;-75
2021/12/06 08:27:57;;;;;;;;;8.75;7.75;;;;;7.87;69.37;101063.50;5074496;28;45909;-75
2021/12/06 08:30:24;;;;;;;;;20.00;15.00;;;;;8.23;69.12;101105.03;5074802;28;45744;-74
2021/12/06 08:32:52;;;;;;;;;16.25;13.75;;;;;8.27;68.24;101108.56;5074690;28;45861;-74
2021/12/06 08:35:22;;;;;;;;;19.50;16.25;;;;;8.34;68.42;101093.88;5073972;28;45367;-76
2021/12/06 08:37:48;;;;;;;;;18.75;14.50;;;;;9.21;66.56;101079.56;5073590;28;45589;-75
2021/12/06 08:40:16;;;;;;;;;15.50;14.00;;;;;10.80;62.68;101089.88;5055116;28;45577;-72
2021/12/06 08:42:43;;;;;;;;;14.50;13.00;;;;;12.44;57.96;101031.78;5073081;28;46517;-73
2021/12/06 08:45:11;;;;;;;;;13.75;13.50;;;;;14.49;53.71;101079.06;5054516;28;45887;-71
2021/12/06 08:47:38;;;;;;;;;15.25;14.00;;;;;15.41;50.12;100984.00;5073448;28;45910;-71
2021/12/06 08:50:07;;;;;;;;;16.75;12.75;;;;;16.51;48.47;101087.13;5074081;28;46330;-74
2021/12/06 08:52:33;;;;;;;;;15.75;13.00;;;;;16.38;46.77;100961.34;5073816;28;45856;-74
2021/12/06 08:54:59;;;;;;;;;14.75;14.25;;;;;16.51;46.55;101006.91;5073765;28;45839;-77
2021/12/06 08:57:25;;;;;;;;;13.67;11.00;;;;;16.83;45.18;100945.50;5073404;28;45608;-76
2021/12/06 08:59:52;;;;;;;;;13.67;10.67;;;;;18.52;42.09;101038.75;5058750;28;45526;-77
2021/12/06 09:02:18;;;;;;;;;10.33;10.33;;;;;19.57;41.15;101049.97;5052400;28;45900;-74
2021/12/06 09:04:44;;;;;;;;;10.00;9.67;;;;;19.37;40.85;101078.00;5052580;28;45562;-75
2021/12/06 09:07:14;;;;;;;;;13.33;12.00;;;;;18.69;41.87;101070.13;5055814;28;45421;-70
2021/12/06 09:09:47;;;;;;;;;12.00;12.00;;;;;18.45;41.41;101072.50;5034699;28;45833;-74
2021/12/06 09:12:18;;;;;;;;;14.67;12.67;;;;;17.60;42.38;101073.59;5059027;28;46193;-73
2021/12/06 09:14:44;;;;;;;;;13.00;12.00;;;;;17.14;43.50;101064.81;5045677;28;45534;-71
2021/12/06 09:17:11;;;;;;;;;14.00;12.33;;;;;16.86;44.52;101083.00;5060685;28;45572;-75
2021/12/06 09:19:37;;;;;;;;;18.00;14.67;;;;;17.56;43.00;101091.34;5052823;28;45403;-71
2021/12/06 09:22:03;;;;;;;;;11.67;10.33;;;;;17.59;42.38;101066.56;5051880;28;46612;-73
2021/12/06 09:24:30;;;;;;;;;13.00;10.67;;;;;16.79;43.30;101062.84;5051562;28;45462;-73
2021/12/06 09:26:56;;;;;;;;;11.33;9.00;;;;;16.44;44.73;101092.53;5051545;28;45362;-73
2021/12/06 09:29:24;;;;;;;;;14.00;11.33;;;;;16.30;43.66;101092.75;5034415;28;45599;-70
2021/12/06 09:31:54;;;;;;;;;10.00;8.67;;;;;15.51;44.13;101056.00;5033483;28;45500;-70
2021/12/06 09:34:21;;;;;;;;;10.67;9.33;;;;;15.16;44.45;101082.81;5048836;27;45684;-71
2021/12/06 09:36:46;;;;;;;;;3.33;3.33;;;;;15.61;44.90;101085.78;5048268;28;46242;-72
2021/12/06 09:39:14;;;;;;;;;12.00;11.00;;;;;14.98;45.57;101095.34;5070325;28;45576;-71
2021/12/06 09:41:40;;;;;;;;;12.67;12.33;;;;;15.55;44.35;101059.50;5070996;28;45421;-72
2021/12/06 09:44:09;;;;;;;;;15.00;10.33;;;;;16.61;42.78;101069.34;5070476;28;45850;-71
2021/12/06 09:46:37;;;;;;;;;8.67;8.33;;;;;16.06;43.85;101081.69;5070146;28;45522;-73
2021/12/06 09:49:13;;;;;;;;;10.33;8.67;;;;;16.50;43.11;101093.31;5069422;28;45411;-72
2021/12/06 09:51:41;;;;;;;;;10.00;8.33;;;;;16.27;42.19;101054.03;5069818;28;46202;-71
2021/12/06 09:54:08;;;;;;;;;7.00;6.00;;;;;17.17;41.40;101090.34;5051799;28;46245;-70
2021/12/06 09:56:40;;;;;;;;;16.00;8.33;;;;;17.73;40.82;101082.16;5051350;28;45541;-70
2021/12/06 09:59:10;;;;;;;;;9.33;7.67;;;;;17.79;40.79;101085.50;5070006;28;45710;-70
2021/12/06 10:01:44;;;;;;;;;12.00;10.00;;;;;17.12;40.42;101065.75;5069216;28;45623;-71
2021/12/06 10:04:14;;;;;;;;;9.67;8.33;;;;;15.78;41.93;101065.38;5069109;28;45532;-72
2021/12/06 10:06:40;;;;;;;;;7.67;6.00;;;;;15.18;44.36;101079.28;5051074;28;46020;-71
2021/12/06 10:09:08;;;;;;;;;10.00;10.00;;;;;14.38;45.05;101029.13;5085834;27;45439;-73
2021/12/06 10:11:34;;;;;;;;;9.33;8.67;;;;;14.78;44.65;101090.28;5069230;28;46214;-71
2021/12/06 10:13:59;;;;;;;;;8.67;7.67;;;;;15.34;44.50;101093.19;5070081;28;45884;-70
2021/12/06 10:16:26;;;;;;;;;8.00;8.00;;;;;15.95;43.10;101085.38;5050824;28;45537;-70
2021/12/06 10:18:52;;;;;;;;;13.00;7.33;;;;;16.42;42.62;101049.38;5068936;28;45467;-69
2021/12/06 10:21:19;;;;;;;;;8.00;5.00;;;;;16.81;41.86;101061.06;5069099;28;45810;-70
2021/12/06 10:23:44;;;;;;;;;9.00;8.33;;;;;16.04;42.46;101028.00;5069493;28;45737;-74
2021/12/06 10:26:17;;;;;;;;;10.33;8.00;;;;;15.44;43.54;101054.34;5069291;28;45439;-75
2021/12/06 10:28:43;;;;;;;;;11.67;8.67;;;;;14.79;44.85;101047.19;5085595;27;45549;-70
2021/12/06 10:31:12;;;;;;;;;7.33;6.67;;;;;14.68;45.13;101027.97;5069419;28;45931;-71
2021/12/06 10:33:45;;;;;;;;;10.67;9.00;;;;;14.71;45.22;101043.78;5084352;27;45495;-70
2021/12/06 10:36:15;;;;;;;;;9.33;9.33;;;;;14.00;46.28;101046.09;5069205;28;45518;-70
2021/12/06 10:38:45;;;;;;;;;12.50;10.25;;;;;13.09;47.68;101001.81;5069615;28;45443;-72
2021/12/06 10:41:18;;;;;;;;;10.75;8.50;;;;;12.82;49.11;101023.84;5068696;28;45427;-72
2021/12/06 10:44:04;;;;;;;;;12.50;10.50;;;;;12.62;49.80;101026.47;5068873;28;45589;-71
2021/12/06 10:46:31;;;;;;;;;10.00;10.00;;;;;12.67;49.66;101019.50;5068872;28;45946;-74
2021/12/06 10:49:02;;;;;;;;;13.50;12.00;;;;;12.45;50.04;101028.28;5068895;28;45850;-72
2021/12/06 10:51:30;;;;;;;;;13.75;11.25;;;;;12.18;50.61;101001.16;5068800;28;46239;-71
2021/12/06 10:54:05;;;;;;;;;12.75;10.25;;;;;12.27;50.58;101019.53;5050521;28;45877;-72
2021/12/06 10:56:43;;;;;;;;;14.50;11.75;;;;;12.42;49.90;100988.88;5068614;28;45425;-71
2021/12/06 10:59:21;;;;;;;;;14.00;12.50;;;;;12.25;50.87;101000.28;5069351;28;45870;-73
2021/12/06 11:01:49;;;;;;;;;14.00;12.75;;;;;12.19;51.05;101008.16;5069938;28;45461;-70
2021/12/06 11:04:18;;;;;;;;;10.50;8.00;;;;;11.90;50.77;100960.03;5069144;28;45779;-71
2021/12/06 11:06:47;;;;;;;;;12.25;9.25;;;;;12.02;50.88;100989.78;5068954;28;45761;-71
2021/12/06 11:09:21;;;;;;;;;13.00;8.00;;;;;12.12;51.08;100988.03;5069413;28;45608;-72
2021/12/06 11:11:51;;;;;;;;;8.50;8.50;;;;;12.21;51.22;100989.78;5068371;28;45753;-70
2021/12/06 11:14:22;;;;;;;;;7.50;7.50;;;;;12.29;50.77;100985.38;5068520;28;45746;-72
2021/12/06 11:16:53;;;;;;;;;13.25;10.50;;;;;12.17;51.44;100943.38;5069116;28;45519;-70
2021/12/06 11:19:21;;;;;;;;;9.25;8.50;;;;;12.28;50.72;100950.38;5069534;28;45778;-72
2021/12/06 11:21:52;;;;;;;;;11.50;9.25;;;;;11.96;50.93;100913.66;5069873;28;46010;-70
2021/12/06 11:24:29;;;;;;;;;11.50;10.75;;;;;12.32;51.49;100988.03;5071959;28;45320;-74
2021/12/06 11:27:07;;;;;;;;;13.50;10.00;;;;;11.88;52.21;100996.78;5071592;28;46116;-70
2021/12/06 11:29:47;;;;;;;;;10.25;10.25;;;;;11.52;53.07;100998.44;5071237;28;45762;-73
2021/12/06 11:32:15;;;;;;;;;12.75;10.50;;;;;11.19;53.89;101002.69;5056714;28;46655;-72
2021/12/06 11:34:43;;;;;;;;;12.50;10.00;;;;;10.56;54.95;100936.06;5074899;28;45635;-71
2021/12/06 11:37:42;;;;;;;;;12.75;11.00;;;;;10.65;55.47;100959.66;5074466;28;45504;-71
2021/12/06 11:40:18;;;;;;;;;15.75;12.75;;;;;10.65;55.90;100966.63;5072234;27;45828;-71
2021/12/06 11:42:56;;;;;;;;;15.50;13.75;;;;;10.68;56.19;100983.25;5072238;28;46063;-71
2021/12/06 11:45:33;;;;;;;;;17.75;14.00;;;;;10.24;57.20;100948.91;5054435;28;45556;-72
2021/12/06 11:48:03;;;;;;;;;16.50;12.00;;;;;10.03;57.42;100931.31;5072344;28;45880;-71
2021/12/06 11:50:29;;;;;;;;;19.75;14.75;;;;;10.01;57.66;100935.66;5073076;28;45533;-72